Time;durP1;ratioP1;P1;durP2;ratioP2;P2;SDS_P1;SDS_P2;PMS_P1;PMS_P2;Temp;Humidity;BMP_temperature;BMP_pressure;BME280_temperature;BME280_humidity;BME280_pressure;Samples;Min_cycle;Max_cycle;Signal;HPM_P1;HPM_P2
2022/07/09 00:01:12;;;;;;;34.13;3.05;;;;;;;21.07;47.37;102241.06;5148723;28;20065;-79
2022/07/09 00:03:43;;;;;;;0.40;0.40;;;;;;;21.05;47.36;102237.59;5163865;28;20346;-79
2022/07/09 00:06:13;;;;;;;1.40;1.30;;;;;;;21.03;47.56;102238.63;5143846;28;20048;-79
2022/07/09 00:08:44;;;;;;;0.38;0.38;;;;;;;20.99;47.55;102237.91;5183858;28;20041;-79
2022/07/09 00:11:14;;;;;;;0.30;0.30;;;;;;;20.98;47.59;102241.50;5162538;28;20031;-79
2022/07/09 00:13:45;;;;;;;0.57;0.57;;;;;;;20.94;47.77;102244.38;5167144;28;20370;-78
2022/07/09 00:16:15;;;;;;;1.65;1.55;;;;;;;20.89;47.44;102240.16;5182313;28;20065;-79
2022/07/09 00:18:46;;;;;;;3.30;1.00;;;;;;;20.87;47.64;102241.13;5147103;28;20030;-78
2022/07/09 00:21:16;;;;;;;0.30;0.30;;;;;;;20.83;47.61;102237.75;5153426;28;20030;-79
2022/07/09 00:23:47;;;;;;;1.02;0.95;;;;;;;20.83;47.94;102229.72;5161473;28;20474;-79
2022/07/09 00:26:18;;;;;;;0.28;0.28;;;;;;;20.79;48.11;102232.63;5174305;28;20626;-79
2022/07/09 00:28:49;;;;;;;0.20;0.20;;;;;;;20.75;47.99;102222.09;5142675;28;20216;-79
2022/07/09 00:31:22;;;;;;;0.30;0.30;;;;;;;20.74;48.08;102227.53;5162304;28;20085;-79
2022/07/09 00:33:53;;;;;;;0.20;0.20;;;;;;;20.71;48.26;102223.13;5164565;28;20430;-79
2022/07/09 00:36:24;;;;;;;1.65;1.30;;;;;;;20.69;48.21;102230.38;5145884;28;20071;-79
2022/07/09 00:38:54;;;;;;;0.73;0.73;;;;;;;20.67;48.13;102226.91;5155515;28;20155;-79
2022/07/09 00:41:25;;;;;;;0.77;0.77;;;;;;;20.64;48.55;102220.84;5133795;28;20076;-79
2022/07/09 00:43:56;;;;;;;0.95;0.95;;;;;;;20.62;48.39;102218.22;5180510;28;20041;-79
2022/07/09 00:46:26;;;;;;;0.65;0.65;;;;;;;20.62;48.46;102217.38;5158419;28;20049;-78
2022/07/09 00:49:03;;;;;;;0.43;0.43;;;;;;;20.58;48.29;102213.97;5158181;28;20038;-79
2022/07/09 00:51:34;;;;;;;0.68;0.68;;;;;;;20.56;48.33;102223.84;5168246;28;20053;-79
2022/07/09 00:54:05;;;;;;;1.25;1.20;;;;;;;20.53;48.49;102213.34;5185859;28;20022;-79
2022/07/09 00:56:36;;;;;;;0.30;0.30;;;;;;;20.50;48.60;102208.13;5154775;28;20752;-79
2022/07/09 00:59:12;;;;;;;0.55;0.55;;;;;;;20.48;48.47;102204.66;5144143;28;20136;-79
2022/07/09 01:01:42;;;;;;;4.40;1.65;;;;;;;20.43;48.75;102208.41;5158350;28;20594;-79
2022/07/09 01:04:17;;;;;;;0.35;0.35;;;;;;;20.39;48.84;102206.81;5178201;28;20032;-79
2022/07/09 01:06:47;;;;;;;0.70;0.70;;;;;;;20.37;48.42;102211.34;5171266;28;20526;-79
2022/07/09 01:09:18;;;;;;;1.00;0.90;;;;;;;20.37;48.74;102205.16;5179221;28;20095;-79
2022/07/09 01:11:48;;;;;;;0.35;0.35;;;;;;;20.34;48.87;102207.94;5181134;28;20121;-79
2022/07/09 01:14:19;;;;;;;2.08;0.93;;;;;;;20.31;48.96;102202.78;5176114;28;20091;-79
2022/07/09 01:16:58;;;;;;;4.88;1.05;;;;;;;20.29;48.78;102203.69;5164419;28;20062;-79
2022/07/09 01:19:30;;;;;;;0.38;0.38;;;;;;;20.27;49.07;102210.03;5128853;28;20054;-79
2022/07/09 01:22:01;;;;;;;0.20;0.20;;;;;;;20.24;48.99;102204.84;5174335;28;20025;-79
2022/07/09 01:24:32;;;;;;;1.10;0.45;;;;;;;20.22;48.98;102204.03;5148395;28;20041;-79
2022/07/09 01:27:03;;;;;;;1.83;1.20;;;;;;;20.21;49.14;102196.97;5150615;28;20053;-79
2022/07/09 01:29:33;;;;;;;0.20;0.20;;;;;;;20.16;49.04;102206.97;5129630;28;20113;-79
2022/07/09 01:32:14;;;;;;;4.13;1.30;;;;;;;20.12;49.49;102198.25;5149377;28;20068;-79
2022/07/09 01:34:44;;;;;;;18.83;1.52;;;;;;;20.08;49.34;102196.66;5174484;28;20046;-79
2022/07/09 01:37:15;;;;;;;1.10;1.00;;;;;;;20.05;49.36;102200.31;5184801;28;20065;-78
2022/07/09 01:39:52;;;;;;;2.03;1.38;;;;;;;20.02;49.49;102196.91;5167405;28;20473;-79
2022/07/09 01:42:25;;;;;;;7.45;1.45;;;;;;;19.98;49.30;102193.53;5175345;28;20053;-79
2022/07/09 01:44:56;;;;;;;10.70;2.03;;;;;;;19.97;49.81;102197.13;5165410;28;20048;-78
2022/07/09 01:47:26;;;;;;;0.75;0.75;;;;;;;19.95;49.22;102197.19;5179556;28;20073;-79
2022/07/09 01:49:57;;;;;;;1.60;1.05;;;;;;;19.93;49.66;102188.38;5153526;28;20031;-79
2022/07/09 01:52:32;;;;;;;2.45;1.63;;;;;;;19.92;49.72;102185.81;5171308;28;20052;-79
2022/07/09 01:55:03;;;;;;;1.80;1.70;;;;;;;19.89;49.90;102183.25;5149169;28;20026;-78
2022/07/09 01:57:34;;;;;;;0.65;0.65;;;;;;;19.87;49.88;102179.81;5157512;28;20366;-79
2022/07/09 02:00:05;;;;;;;2.20;0.60;;;;;;;19.86;49.79;102183.41;5182706;28;20065;-79
2022/07/09 02:02:36;;;;;;;0.77;0.77;;;;;;;19.84;49.99;102179.91;5181765;28;20068;-79
2022/07/09 02:05:08;;;;;;;5.75;1.45;;;;;;;19.82;49.85;102178.19;5167725;28;20026;-79
2022/07/09 02:07:39;;;;;;;0.35;0.35;;;;;;;19.80;49.95;102165.88;5165640;28;20042;-79
2022/07/09 02:10:10;;;;;;;4.25;1.27;;;;;;;19.79;50.10;102164.97;5174963;28;20041;-79
2022/07/09 02:12:40;;;;;;;1.25;1.08;;;;;;;19.78;49.95;102168.59;5136174;28;20406;-78
2022/07/09 02:15:12;;;;;;;2.90;1.33;;;;;;;19.77;50.09;102171.31;5181394;28;20026;-79
2022/07/09 02:17:43;;;;;;;2.05;1.85;;;;;;;19.75;50.21;102174.06;5175426;28;20088;-78
2022/07/09 02:20:13;;;;;;;5.60;2.63;;;;;;;19.72;50.19;102168.00;5161291;28;20034;-79
2022/07/09 02:22:44;;;;;;;1.67;1.30;;;;;;;19.71;50.19;102164.44;5168086;28;20050;-78
2022/07/09 02:25:14;;;;;;;1.33;0.90;;;;;;;19.67;50.26;102162.84;5166197;28;20031;-79
2022/07/09 02:27:45;;;;;;;0.40;0.40;;;;;;;19.66;50.51;102164.66;5153252;28;20039;-78
2022/07/09 02:30:17;;;;;;;1.67;1.13;;;;;;;19.66;50.59;102161.13;5169297;28;20112;-79
2022/07/09 02:32:48;;;;;;;2.15;1.75;;;;;;;19.64;50.46;102158.53;5150208;28;20038;-80
2022/07/09 02:35:18;;;;;;;1.55;0.95;;;;;;;19.62;50.37;102152.41;5163157;28;20450;-79
2022/07/09 02:37:49;;;;;;;4.22;2.15;;;;;;;19.63;50.61;102158.59;5139049;28;20047;-79
2022/07/09 02:40:19;;;;;;;4.25;1.45;;;;;;;19.60;50.67;102164.06;5136442;28;20027;-80
2022/07/09 02:42:50;;;;;;;5.55;1.40;;;;;;;19.57;50.71;102165.06;5161461;28;20049;-79
2022/07/09 02:45:20;;;;;;;0.40;0.40;;;;;;;19.55;50.61;102163.38;5148984;28;20470;-79
2022/07/09 02:47:51;;;;;;;2.05;1.35;;;;;;;19.54;50.68;102166.97;5152875;28;20077;-79
2022/07/09 02:50:22;;;;;;;3.63;2.58;;;;;;;19.53;50.84;102165.25;5172384;28;20094;-79
2022/07/09 02:52:52;;;;;;;0.60;0.57;;;;;;;19.52;50.68;102168.84;5134069;28;20038;-79
2022/07/09 02:55:22;;;;;;;14.77;1.98;;;;;;;19.48;51.04;102168.94;5171347;28;20030;-79
2022/07/09 02:57:53;;;;;;;1.13;1.10;;;;;;;19.47;50.71;102163.69;5164858;28;20327;-79
2022/07/09 03:00:24;;;;;;;0.55;0.55;;;;;;;19.44;50.91;102156.72;5172767;28;20534;-79
2022/07/09 03:02:54;;;;;;;0.73;0.73;;;;;;;19.43;51.10;102157.66;5133873;28;20034;-78
2022/07/09 03:05:28;;;;;;;0.93;0.52;;;;;;;19.41;51.03;102169.28;5143776;28;20157;-78
2022/07/09 03:07:59;;;;;;;4.72;2.25;;;;;;;19.36;50.81;102164.16;5160481;28;20106;-79
2022/07/09 03:10:29;;;;;;;0.70;0.70;;;;;;;19.35;50.89;102154.44;5145515;28;20062;-79
2022/07/09 03:13:00;;;;;;;1.52;1.17;;;;;;;19.32;50.87;102167.84;5179053;28;20041;-79
2022/07/09 03:15:31;;;;;;;0.57;0.57;;;;;;;19.32;51.36;102162.53;5168641;28;20014;-76
2022/07/09 03:18:07;;;;;;;1.90;1.35;;;;;;;19.30;51.46;102153.75;5179606;28;20049;-77
2022/07/09 03:20:38;;;;;;;0.52;0.52;;;;;;;19.25;50.91;102153.06;5173178;28;20383;-77
2022/07/09 03:23:08;;;;;;;0.73;0.73;;;;;;;19.24;51.23;102151.34;5171082;28;20022;-78
2022/07/09 03:25:39;;;;;;;0.47;0.47;;;;;;;19.23;51.02;102152.25;5152687;28;20654;-78
2022/07/09 03:28:12;;;;;;;19.65;3.20;;;;;;;19.20;51.28;102150.59;5148910;28;20019;-78
2022/07/09 03:30:43;;;;;;;3.13;1.42;;;;;;;19.18;51.13;102155.13;5159441;28;20045;-79
2022/07/09 03:33:15;;;;;;;0.80;0.80;;;;;;;19.17;51.21;102156.91;5166396;28;20026;-79
2022/07/09 03:35:55;;;;;;;1.73;1.23;;;;;;;19.14;51.20;102156.19;5152754;28;20738;-78
2022/07/09 03:38:33;;;;;;;0.43;0.43;;;;;;;19.11;51.51;102146.53;5124530;28;20089;-79
2022/07/09 03:41:04;;;;;;;2.58;1.58;;;;;;;19.09;51.35;102143.06;5152983;28;20121;-79
2022/07/09 03:43:34;;;;;;;3.30;1.40;;;;;;;19.08;51.63;102143.97;5147495;28;20180;-78
2022/07/09 03:46:10;;;;;;;;;;;;;;;19.07;51.46;102149.38;5146709;28;20061;-79
2022/07/09 03:48:40;;;;;;;0.60;0.60;;;;;;;19.04;51.48;102147.72;5154681;28;19924;-78
2022/07/09 03:51:11;;;;;;;0.50;0.50;;;;;;;19.03;51.39;102149.50;5134928;28;20042;-78
2022/07/09 03:53:41;;;;;;;1.90;1.75;;;;;;;19.01;51.97;102148.69;5124415;28;20086;-78
2022/07/09 03:56:12;;;;;;;0.70;0.70;;;;;;;18.99;51.75;102147.00;5163099;28;20044;-77
2022/07/09 03:58:43;;;;;;;3.40;0.60;;;;;;;18.98;51.63;102158.56;5158914;28;20494;-78
2022/07/09 04:01:14;;;;;;;4.68;1.80;;;;;;;18.96;51.85;102157.78;5139332;28;20470;-78
2022/07/09 04:03:50;;;;;;;0.30;0.30;;;;;;;18.94;51.95;102149.00;5142898;28;20038;-78
2022/07/09 04:06:20;;;;;;;3.58;1.90;;;;;;;18.91;51.85;102141.97;5143596;28;20050;-78
2022/07/09 04:08:51;;;;;;;1.27;1.20;;;;;;;18.90;51.73;102139.38;5161620;28;20041;-77
2022/07/09 04:11:22;;;;;;;0.45;0.45;;;;;;;18.88;51.88;102140.28;5153465;28;20061;-78
2022/07/09 04:13:52;;;;;;;0.73;0.73;;;;;;;18.86;52.04;102144.81;5179632;28;20048;-78
2022/07/09 04:16:25;;;;;;;0.90;0.82;;;;;;;18.85;51.90;102150.19;5138356;28;20061;-77
2022/07/09 04:19:00;;;;;;;14.55;2.13;;;;;;;18.84;52.17;102146.66;5155456;28;20023;-77
2022/07/09 04:21:31;;;;;;;1.83;1.27;;;;;;;18.83;51.79;102152.91;5163145;28;20037;-77
2022/07/09 04:24:07;;;;;;;0.60;0.60;;;;;;;18.83;52.10;102160.88;5162063;28;20037;-78
2022/07/09 04:26:41;;;;;;;1.02;0.93;;;;;;;18.82;51.96;102156.50;5144144;28;20069;-77
2022/07/09 04:29:12;;;;;;;0.68;0.68;;;;;;;18.81;52.63;102162.72;5177290;28;20026;-78
2022/07/09 04:31:42;;;;;;;3.10;1.65;;;;;;;18.81;52.20;102153.91;5179041;28;20049;-78
2022/07/09 04:34:13;;;;;;;4.30;2.55;;;;;;;18.81;52.51;102152.09;5176641;28;20030;-77
2022/07/09 04:36:46;;;;;;;0.60;0.60;;;;;;;18.80;52.81;102158.34;5178044;28;20073;-78
2022/07/09 04:39:17;;;;;;;0.80;0.80;;;;;;;18.80;52.46;102163.66;5152433;28;20038;-78
2022/07/09 04:41:48;;;;;;;1.25;1.15;;;;;;;18.77;52.46;102163.78;5150707;28;20113;-77
2022/07/09 04:44:18;;;;;;;0.45;0.45;;;;;;;18.77;52.53;102163.78;5171753;28;20030;-78
2022/07/09 04:46:49;;;;;;;0.43;0.43;;;;;;;18.79;52.66;102161.06;5142508;28;20439;-78
2022/07/09 04:49:20;;;;;;;0.40;0.40;;;;;;;18.77;52.30;102160.25;5171590;28;20056;-78
2022/07/09 04:51:51;;;;;;;0.65;0.65;;;;;;;18.76;52.56;102153.22;5153121;28;20064;-78
2022/07/09 04:54:24;;;;;;;1.38;1.27;;;;;;;18.77;52.80;102155.81;5163522;28;20715;-78
2022/07/09 04:56:57;;;;;;;0.30;0.30;;;;;;;18.77;52.90;102154.94;5159212;28;20072;-78
2022/07/09 04:59:28;;;;;;;;;;;;;;;18.78;53.87;102160.22;5161647;28;20033;-77
2022/07/09 05:01:58;;;;;;;7.68;2.50;;;;;;;18.79;53.65;102158.41;5176429;28;19918;-78
2022/07/09 05:04:29;;;;;;;4.38;2.58;;;;;;;18.79;53.47;102161.06;5139005;28;20098;-78
2022/07/09 05:07:05;;;;;;;6.85;2.38;;;;;;;18.82;53.95;102153.84;5157318;28;20045;-78
2022/07/09 05:09:35;;;;;;;3.80;1.13;;;;;;;18.86;55.62;102159.91;5154550;28;20061;-78
2022/07/09 05:12:10;;;;;;;0.47;0.47;;;;;;;18.84;55.08;102159.13;5176330;28;20115;-78
2022/07/09 05:14:40;;;;;;;14.27;2.47;;;;;;;18.84;55.62;102170.59;5172998;28;20034;-78
2022/07/09 05:17:11;;;;;;;1.42;1.33;;;;;;;18.81;54.22;102168.06;5171907;28;20073;-78
2022/07/09 05:19:41;;;;;;;3.67;1.83;;;;;;;18.83;55.33;102165.34;5156445;28;20033;-78
2022/07/09 05:22:12;;;;;;;1.10;0.95;;;;;;;18.84;54.17;102170.59;5138530;28;20030;-78
2022/07/09 05:24:43;;;;;;;0.43;0.43;;;;;;;18.85;53.99;102172.34;5172525;28;20042;-79
2022/07/09 05:27:13;;;;;;;2.13;1.95;;;;;;;18.84;54.47;102164.44;5169090;28;20038;-81
2022/07/09 05:29:43;;;;;;;4.72;3.00;;;;;;;18.85;54.44;102171.44;5168078;28;20113;-79
2022/07/09 05:32:14;;;;;;;0.50;0.50;;;;;;;18.83;54.28;102171.53;5137411;28;20042;-80
2022/07/09 05:34:44;;;;;;;0.70;0.70;;;;;;;18.91;54.56;102165.91;5149935;28;20064;-79
2022/07/09 05:37:15;;;;;;;0.70;0.70;;;;;;;18.82;57.31;102160.97;5162250;28;20052;-78
2022/07/09 05:39:45;;;;;;;0.88;0.88;;;;;;;18.79;58.05;102155.75;5165954;28;20026;-82
2022/07/09 05:42:16;;;;;;;2.13;0.95;;;;;;;18.85;56.13;102159.03;5172705;28;20121;-81
2022/07/09 05:44:47;;;;;;;0.68;0.68;;;;;;;18.88;55.56;102166.88;5154197;28;20426;-84
2022/07/09 05:47:18;;;;;;;1.13;1.00;;;;;;;18.93;55.78;102169.38;5168863;28;20190;-81
2022/07/09 05:49:48;;;;;;;1.73;0.93;;;;;;;18.96;55.35;102171.09;5163138;28;20033;-80
2022/07/09 05:52:19;;;;;;;2.97;0.60;;;;;;;18.94;55.22;102172.94;5151844;28;20121;-79
2022/07/09 05:54:49;;;;;;;1.02;1.02;;;;;;;18.97;56.32;102168.34;5173637;28;20234;-80
2022/07/09 05:57:20;;;;;;;11.95;3.75;;;;;;;19.00;55.54;102164.72;5159348;28;20045;-83
2022/07/09 05:59:51;;;;;;;6.15;1.58;;;;;;;19.01;55.56;102169.09;5170151;28;21099;-80
2022/07/09 06:02:24;;;;;;;0.90;0.90;;;;;;;19.03;56.65;102168.09;5152251;28;20058;-84
2022/07/09 06:04:54;;;;;;;0.80;0.80;;;;;;;19.05;58.96;102168.03;5150754;28;20019;-83
2022/07/09 06:07:25;;;;;;;0.70;0.70;;;;;;;19.08;57.75;102177.72;5137836;28;20100;-82
2022/07/09 06:09:56;;;;;;;2.30;1.25;;;;;;;19.07;59.56;102166.19;5160747;28;20436;-81
2022/07/09 06:12:29;;;;;;;1.48;1.35;;;;;;;19.09;59.75;102174.13;5139990;28;20275;-82
2022/07/09 06:15:01;;;;;;;0.70;0.70;;;;;;;19.09;59.51;102174.13;5155506;28;20033;-83
2022/07/09 06:17:34;;;;;;;0.57;0.57;;;;;;;19.07;62.17;102168.00;5125098;28;20146;-82
2022/07/09 06:20:09;;;;;;;4.38;1.85;;;;;;;18.98;62.81;102153.25;5136050;28;20113;-81
2022/07/09 06:22:42;;;;;;;0.73;0.73;;;;;;;19.08;61.08;102148.47;5140527;28;20043;-83
2022/07/09 06:25:12;;;;;;;1.33;1.23;;;;;;;19.14;59.44;102151.72;5141253;28;20023;-79
2022/07/09 06:27:47;;;;;;;1.55;1.45;;;;;;;19.22;61.74;102142.53;5169898;28;20115;-82
2022/07/09 06:30:17;;;;;;;12.88;2.72;;;;;;;19.16;63.06;102152.53;5182257;28;20057;-83
2022/07/09 06:32:48;;;;;;;0.95;0.82;;;;;;;19.19;60.34;102152.41;5168264;28;20050;-83
2022/07/09 06:35:19;;;;;;;0.40;0.40;;;;;;;19.27;59.68;102153.88;5125235;28;20148;-81
2022/07/09 06:37:49;;;;;;;0.43;0.43;;;;;;;19.33;59.31;102148.31;5164118;28;20783;-81
2022/07/09 06:40:20;;;;;;;0.95;0.95;;;;;;;19.32;61.53;102149.22;5129251;28;20066;-81
2022/07/09 06:42:50;;;;;;;0.75;0.75;;;;;;;19.32;61.73;102143.91;5140580;28;20096;-79
2022/07/09 06:45:21;;;;;;;0.85;0.70;;;;;;;19.30;61.95;102143.09;5185178;28;20037;-79
2022/07/09 06:47:52;;;;;;;0.57;0.57;;;;;;;19.34;60.63;102142.06;5140149;28;20038;-79
2022/07/09 06:50:26;;;;;;;3.83;0.95;;;;;;;19.40;59.78;102138.28;5139340;28;20034;-83
2022/07/09 06:52:56;;;;;;;1.00;0.90;;;;;;;19.45;60.17;102141.59;5169985;28;20042;-80
2022/07/09 06:55:28;;;;;;;0.57;0.55;;;;;;;19.48;59.88;102144.16;5184654;28;20220;-79
2022/07/09 06:57:59;;;;;;;0.45;0.45;;;;;;;19.53;58.91;102146.63;5156573;28;20042;-78
2022/07/09 07:00:33;;;;;;;0.57;0.57;;;;;;;19.58;58.90;102136.63;5169593;28;20541;-79
2022/07/09 07:03:04;;;;;;;1.92;1.23;;;;;;;19.60;58.63;102132.97;5142225;28;20145;-82
2022/07/09 07:05:34;;;;;;;0.55;0.55;;;;;;;19.64;58.67;102139.03;5176072;28;20073;-78
2022/07/09 07:08:05;;;;;;;1.15;1.13;;;;;;;19.70;58.11;102138.78;5167036;28;20021;-79
2022/07/09 07:10:35;;;;;;;0.50;0.50;;;;;;;19.62;59.85;102138.25;5155717;28;20031;-78
2022/07/09 07:13:06;;;;;;;4.35;0.88;;;;;;;19.75;58.30;102144.75;5121635;28;20049;-80
2022/07/09 07:15:36;;;;;;;0.35;0.35;;;;;;;19.87;58.75;102155.84;5155222;28;20458;-79
2022/07/09 07:18:07;;;;;;;0.40;0.40;;;;;;;19.86;58.32;102154.13;5167886;28;20338;-79
2022/07/09 07:20:37;;;;;;;0.55;0.55;;;;;;;19.85;58.04;102155.91;5138771;28;20033;-80
2022/07/09 07:23:11;;;;;;;0.43;0.43;;;;;;;19.84;59.58;102150.63;5192926;22;20147;-80
2022/07/09 07:26:01;;;;;;;0.65;0.55;;;;;;;19.89;58.44;102148.63;5141568;28;20561;-83
2022/07/09 07:28:32;;;;;;;0.30;0.30;;;;;;;19.88;58.66;102158.44;5167462;28;20124;-80
2022/07/09 07:31:02;;;;;;;0.40;0.40;;;;;;;19.89;58.12;102157.50;5171955;28;20087;-81
2022/07/09 07:33:33;;;;;;;0.50;0.50;;;;;;;19.97;57.71;102154.50;5170925;28;20034;-80
2022/07/09 07:36:04;;;;;;;0.60;0.60;;;;;;;20.05;58.08;102160.34;5143337;28;20041;-79
2022/07/09 07:38:35;;;;;;;1.40;0.93;;;;;;;20.05;57.80;102163.00;5183561;28;20205;-79
2022/07/09 07:41:08;;;;;;;4.88;1.17;;;;;;;20.12;58.02;102161.81;5181112;28;20371;-79
2022/07/09 07:43:39;;;;;;;0.65;0.65;;;;;;;20.26;57.01;102149.69;5182661;28;20037;-79
2022/07/09 07:46:09;;;;;;;0.28;0.28;;;;;;;20.21;57.39;102154.34;5183897;28;20402;-79
2022/07/09 07:48:43;;;;;;;0.52;0.52;;;;;;;20.13;57.66;102152.03;5151523;28;20052;-80
2022/07/09 07:51:13;;;;;;;0.40;0.40;;;;;;;20.22;57.37;102153.41;5168230;28;20089;-80
2022/07/09 07:53:44;;;;;;;0.25;0.25;;;;;;;20.23;57.88;102147.13;5182357;28;20537;-80
2022/07/09 07:56:15;;;;;;;0.30;0.30;;;;;;;20.25;58.08;102145.28;5165990;28;20358;-80
2022/07/09 07:58:45;;;;;;;0.52;0.50;;;;;;;20.39;56.85;102150.84;5163764;28;20033;-80
2022/07/09 08:01:16;;;;;;;0.20;0.20;;;;;;;20.32;56.98;102151.22;5140115;28;20046;-80
2022/07/09 08:03:46;;;;;;;0.20;0.20;;;;;;;20.36;56.64;102152.78;5146423;28;20030;-80
2022/07/09 08:06:17;;;;;;;0.32;0.32;;;;;;;20.37;56.69;102144.69;5164465;28;20518;-80
2022/07/09 08:08:50;;;;;;;0.35;0.35;;;;;;;20.42;57.48;102147.16;5181058;28;20034;-80
2022/07/09 08:11:21;;;;;;;0.30;0.30;;;;;;;20.48;56.61;102141.56;5180629;28;20057;-81
2022/07/09 08:13:51;;;;;;;0.40;0.40;;;;;;;20.57;56.50;102143.81;5164812;28;20486;-80
2022/07/09 08:16:22;;;;;;;0.40;0.40;;;;;;;20.60;56.29;102138.31;5159603;28;20045;-80
2022/07/09 08:18:53;;;;;;;3.40;1.75;;;;;;;20.59;56.27;102133.91;5177604;28;20509;-80
2022/07/09 08:21:23;;;;;;;0.20;0.20;;;;;;;20.62;56.63;102138.22;5178981;28;20065;-80
2022/07/09 08:23:54;;;;;;;0.20;0.20;;;;;;;20.70;55.98;102141.41;5181107;28;20120;-80
2022/07/09 08:26:25;;;;;;;0.20;0.20;;;;;;;20.85;55.51;102144.31;5177779;28;20054;-80
2022/07/09 08:28:58;;;;;;;0.32;0.32;;;;;;;20.84;55.45;102142.59;5148407;28;20049;-80
2022/07/09 08:31:31;;;;;;;1.08;0.45;;;;;;;20.85;55.64;102131.84;5195272;28;20069;-81
2022/07/09 08:34:13;;;;;;;0.20;0.20;;;;;;;20.71;55.79;102135.13;5184461;28;20029;-81
2022/07/09 08:36:52;;;;;;;0.32;0.32;;;;;;;20.73;55.68;102119.97;5177889;28;20038;-81
2022/07/09 08:39:23;;;;;;;0.75;0.30;;;;;;;20.81;55.54;102127.59;5191034;28;20064;-81
2022/07/09 08:41:58;;;;;;;0.20;0.20;;;;;;;20.88;55.59;102120.16;5150350;28;20444;-82
2022/07/09 08:44:30;;;;;;;0.30;0.30;;;;;;;20.86;55.78;102124.72;5177017;28;20223;-82
2022/07/09 08:47:01;;;;;;;0.20;0.20;;;;;;;20.89;55.61;102120.09;5181641;28;20042;-80
2022/07/09 08:49:32;;;;;;;0.40;0.40;;;;;;;20.96;55.52;102115.31;5166710;28;20042;-81
2022/07/09 08:52:03;;;;;;;0.30;0.30;;;;;;;21.01;55.77;102107.97;5164140;28;20149;-81
2022/07/09 08:54:37;;;;;;;0.38;0.38;;;;;;;21.12;55.12;102114.53;5179290;28;20061;-82
2022/07/09 08:57:08;;;;;;;0.30;0.30;;;;;;;21.17;54.72;102112.53;5185736;28;20040;-82
2022/07/09 08:59:39;;;;;;;0.20;0.20;;;;;;;21.17;54.80;102104.53;5154536;28;20061;-82
2022/07/09 09:02:10;;;;;;;0.30;0.30;;;;;;;21.21;54.13;102103.41;5184152;28;20038;-83
2022/07/09 09:04:41;;;;;;;0.20;0.20;;;;;;;21.20;53.99;102097.22;5148452;28;20026;-82
2022/07/09 09:07:18;;;;;;;1.98;0.65;;;;;;;21.21;54.14;102088.28;5183721;28;20083;-82
2022/07/09 09:09:49;;;;;;;0.30;0.30;;;;;;;21.31;54.09;102082.47;5169203;28;20553;-82
2022/07/09 09:12:27;;;;;;;1.17;1.05;;;;;;;21.39;53.65;102083.81;5166364;28;20045;-83
2022/07/09 09:14:58;;;;;;;0.35;0.35;;;;;;;21.47;52.35;102077.19;5147117;28;20033;-82
2022/07/09 09:17:28;;;;;;;0.20;0.20;;;;;;;21.51;52.11;102073.44;5162870;28;20041;-82
2022/07/09 09:20:00;;;;;;;0.20;0.20;;;;;;;21.47;52.71;102071.84;5183947;28;20018;-82
2022/07/09 09:22:31;;;;;;;0.40;0.40;;;;;;;21.55;52.35;102069.66;5184271;28;20057;-82
2022/07/09 09:25:05;;;;;;;0.30;0.30;;;;;;;21.52;52.37;102068.00;5163845;28;20022;-80
2022/07/09 09:27:35;;;;;;;0.55;0.47;;;;;;;21.58;50.32;102064.19;5184196;28;20115;-82
2022/07/09 09:30:09;;;;;;;0.35;0.35;;;;;;;21.61;51.09;102063.16;5175140;28;20038;-83
2022/07/09 09:32:39;;;;;;;1.27;0.40;;;;;;;21.73;51.77;102067.88;5164990;28;20061;-84
2022/07/09 09:35:10;;;;;;;0.20;0.20;;;;;;;21.64;51.26;102061.19;5142654;28;20049;-84
2022/07/09 09:37:42;;;;;;;0.20;0.20;;;;;;;21.67;52.01;102070.84;5143302;28;20223;-84
2022/07/09 09:40:14;;;;;;;0.20;0.20;;;;;;;21.75;51.94;102052.59;5143410;28;20033;-84
2022/07/09 09:42:45;;;;;;;0.20;0.20;;;;;;;21.80;51.62;102063.03;5143645;28;20072;-85
2022/07/09 09:45:17;;;;;;;0.30;0.30;;;;;;;21.88;51.51;102055.47;5157416;28;20026;-84
2022/07/09 09:47:49;;;;;;;0.20;0.20;;;;;;;21.94;51.11;102052.47;5143495;28;20469;-83
2022/07/09 09:50:22;;;;;;;0.30;0.30;;;;;;;22.12;50.56;102052.41;5158386;28;20041;-84
2022/07/09 09:52:56;;;;;;;;;;;;;;;22.08;50.93;102061.56;5161752;28;20050;-83
2022/07/09 09:55:26;;;;;;;0.10;0.10;;;;;;;22.04;50.87;102057.31;5177829;28;19921;-83
2022/07/09 09:57:57;;;;;;;0.30;0.30;;;;;;;22.07;51.27;102051.81;5162025;28;20113;-83
2022/07/09 10:00:31;;;;;;;0.28;0.28;;;;;;;22.17;51.06;102045.03;5159274;28;20430;-82
2022/07/09 10:03:03;;;;;;;0.20;0.20;;;;;;;22.29;50.07;102048.81;5131441;28;20052;-83
2022/07/09 10:05:34;;;;;;;0.28;0.28;;;;;;;22.30;50.34;102040.72;5163670;28;20030;-83
2022/07/09 10:08:04;;;;;;;0.20;0.20;;;;;;;22.33;49.77;102040.56;5149836;28;20034;-83
2022/07/09 10:10:35;;;;;;;0.20;0.20;;;;;;;22.35;49.83;102034.25;5152532;28;20060;-84
2022/07/09 10:13:05;;;;;;;7.72;2.05;;;;;;;22.45;49.95;102032.81;5168708;28;20037;-82
2022/07/09 10:15:36;;;;;;;0.28;0.28;;;;;;;22.40;49.65;102035.72;5180878;28;20034;-83
2022/07/09 10:18:11;;;;;;;0.20;0.20;;;;;;;22.44;49.69;102033.75;5172733;28;20373;-82
2022/07/09 10:20:43;;;;;;;0.20;0.20;;;;;;;22.50;49.62;102032.53;5135270;28;20492;-82
2022/07/09 10:23:24;;;;;;;0.20;0.20;;;;;;;22.46;49.86;102031.84;5167742;28;20045;-81
2022/07/09 10:25:58;;;;;;;0.28;0.28;;;;;;;22.47;50.22;102030.91;5178610;28;20638;-82
2022/07/09 10:28:30;;;;;;;0.20;0.20;;;;;;;22.61;49.97;102028.28;5166524;28;20038;-82
2022/07/09 10:31:07;;;;;;;0.30;0.30;;;;;;;22.61;50.17;102028.28;5182009;28;20474;-82
2022/07/09 10:34:01;;;;;;;0.32;0.32;;;;;;;22.64;49.85;102021.94;5159375;28;20064;-82
2022/07/09 10:36:32;;;;;;;0.45;0.45;;;;;;;22.80;50.05;102011.19;5180401;28;20038;-82
2022/07/09 10:39:11;;;;;;;0.30;0.30;;;;;;;22.91;49.79;102016.78;5166934;28;20116;-82
2022/07/09 10:41:42;;;;;;;0.50;0.50;;;;;;;22.84;49.35;102007.41;5147797;28;20037;-81
2022/07/09 10:44:26;;;;;;;0.17;0.17;;;;;;;22.85;48.94;102014.44;5178691;28;20057;-82
2022/07/09 10:46:59;;;;;;;0.30;0.30;;;;;;;22.90;49.14;102017.72;5164345;28;20037;-82
2022/07/09 10:49:30;;;;;;;0.10;0.10;;;;;;;23.00;48.98;102014.50;5152436;28;20099;-82
2022/07/09 10:52:01;;;;;;;0.22;0.22;;;;;;;23.05;48.99;102004.38;5164819;28;20504;-81
2022/07/09 10:54:32;;;;;;;0.20;0.20;;;;;;;23.07;48.91;102003.34;5146380;28;20027;-82
2022/07/09 10:57:03;;;;;;;0.30;0.30;;;;;;;23.08;49.11;101999.72;5156681;28;20568;-81
2022/07/09 10:59:33;;;;;;;0.20;0.20;;;;;;;23.13;49.09;101995.91;5148007;28;20030;-83
2022/07/09 11:02:04;;;;;;;0.20;0.20;;;;;;;23.17;48.65;102002.78;5170218;28;20038;-83
2022/07/09 11:04:35;;;;;;;0.30;0.30;;;;;;;23.18;48.06;101981.28;5145034;28;20342;-82
2022/07/09 11:07:05;;;;;;;0.30;0.30;;;;;;;23.30;48.72;101986.88;5159793;28;20038;-82
2022/07/09 11:09:35;;;;;;;0.20;0.20;;;;;;;23.35;48.52;101985.63;5162757;28;20041;-82
2022/07/09 11:12:06;;;;;;;0.55;0.55;;;;;;;23.51;47.88;101990.03;5132486;28;20407;-82
2022/07/09 11:14:48;;;;;;;0.20;0.20;;;;;;;23.47;48.24;101981.34;5137390;28;20034;-82
2022/07/09 11:17:21;;;;;;;0.57;0.57;;;;;;;23.50;48.22;101981.16;5161892;28;20281;-82
2022/07/09 11:19:55;;;;;;;0.30;0.30;;;;;;;23.61;47.38;101990.31;5180430;28;20119;-83
2022/07/09 11:22:29;;;;;;;0.20;0.20;;;;;;;23.66;47.82;101988.25;5107789;28;20042;-83
2022/07/09 11:25:00;;;;;;;0.20;0.20;;;;;;;23.76;47.58;101983.16;5163576;28;20034;-82
2022/07/09 11:27:34;;;;;;;0.20;0.20;;;;;;;23.66;47.06;101977.53;5180012;28;20561;-81
2022/07/09 11:30:06;;;;;;;1.35;0.68;;;;;;;23.69;47.50;101969.28;5159492;28;20026;-81
2022/07/09 11:32:37;;;;;;;0.22;0.22;;;;;;;23.88;46.99;101983.22;5166412;28;20125;-81
2022/07/09 11:35:08;;;;;;;0.20;0.20;;;;;;;23.90;47.85;101972.41;5147133;28;20164;-81
2022/07/09 11:37:47;;;;;;;1.55;0.90;;;;;;;23.94;47.12;101971.28;5158943;28;20421;-81
2022/07/09 11:40:19;;;;;;;0.40;0.40;;;;;;;23.98;47.07;101962.09;5146707;28;20178;-81
2022/07/09 11:42:50;;;;;;;0.38;0.38;;;;;;;23.97;47.84;101962.19;5162364;28;20041;-81
2022/07/09 11:45:25;;;;;;;0.30;0.30;;;;;;;24.04;47.54;101958.16;5160415;28;20029;-81
2022/07/09 11:48:07;;;;;;;0.20;0.20;;;;;;;24.02;47.42;101957.38;5160600;28;20038;-82